Time;durP1;ratioP1;P1;durP2;ratioP2;P2;SDS_P1;SDS_P2;PMS_P1;PMS_P2;Temp;Humidity;BMP_temperature;BMP_pressure;BME280_temperature;BME280_humidity;BME280_pressure;Samples;Min_cycle;Max_cycle;Signal;HPM_P1;HPM_P2
2022/07/08 00:02:23;;;;;;;4.20;2.00;;;16.20;99.90;;;;;;5029707;28;20464;-69
2022/07/08 00:04:50;;;;;;;2.87;2.33;;;16.10;99.90;;;;;;5029031;28;20884;-70
2022/07/08 00:07:16;;;;;;;3.20;2.63;;;16.10;99.90;;;;;;5029424;28;20986;-68
2022/07/08 00:09:43;;;;;;;4.23;2.40;;;16.10;99.90;;;;;;5028351;28;20476;-70
2022/07/08 00:12:10;;;;;;;4.60;2.70;;;16.10;99.90;;;;;;5029293;28;20489;-70
2022/07/08 00:14:37;;;;;;;2.93;2.30;;;16.00;99.90;;;;;;5028894;28;20495;-67
2022/07/08 00:17:04;;;;;;;4.50;2.43;;;16.00;99.90;;;;;;5029731;28;20472;-69
2022/07/08 00:19:32;;;;;;;4.63;2.40;;;16.00;99.90;;;;;;5028775;28;20460;-69
2022/07/08 00:21:58;;;;;;;5.33;2.60;;;15.90;99.90;;;;;;5029181;28;20456;-70
2022/07/08 00:24:25;;;;;;;4.43;2.70;;;15.90;99.90;;;;;;5028910;28;20761;-69
2022/07/08 00:26:52;;;;;;;3.00;2.00;;;15.80;99.90;;;;;;5028850;28;20470;-69
2022/07/08 00:29:18;;;;;;;3.30;2.07;;;15.80;99.90;;;;;;5028347;28;20471;-69
2022/07/08 00:31:45;;;;;;;4.67;2.70;;;15.80;99.90;;;;;;5028870;28;20472;-70
2022/07/08 00:34:12;;;;;;;3.53;2.10;;;15.80;99.90;;;;;;5028704;28;20491;-69
2022/07/08 00:36:40;;;;;;;3.43;2.10;;;15.70;99.90;;;;;;5028587;28;20483;-68
2022/07/08 00:39:07;;;;;;;6.07;2.30;;;15.70;99.90;;;;;;5028585;28;20538;-69
2022/07/08 00:41:34;;;;;;;7.40;2.53;;;15.60;99.90;;;;;;5028420;28;20571;-69
2022/07/08 00:44:00;;;;;;;4.07;2.67;;;15.60;99.90;;;;;;5028751;28;20848;-70
2022/07/08 00:46:27;;;;;;;5.37;2.80;;;15.60;99.90;;;;;;5028578;28;20464;-69
2022/07/08 00:48:54;;;;;;;4.03;2.20;;;15.50;99.90;;;;;;5028473;28;20460;-69
2022/07/08 00:51:21;;;;;;;3.93;2.20;;;15.50;99.90;;;;;;5027753;28;20475;-69
2022/07/08 00:53:52;;;;;;;6.30;2.83;;;15.40;99.90;;;;;;5027905;28;20495;-69
2022/07/08 00:56:21;;;;;;;5.60;2.80;;;15.40;99.90;;;;;;5028512;28;20511;-69
2022/07/08 00:58:49;;;;;;;4.30;3.00;;;15.30;99.90;;;;;;5054221;22;20495;-92
2022/07/08 01:01:16;;;;;;;5.90;3.37;;;15.20;99.90;;;;;;5044416;28;20460;-92
2022/07/08 01:03:44;;;;;;;7.03;3.27;;;15.20;99.90;;;;;;5052919;28;20454;-92
2022/07/08 01:06:11;;;;;;;3.03;2.73;;;15.10;99.90;;;;;;5053894;28;20467;-92
2022/07/08 01:08:39;;;;;;;3.90;3.40;;;15.10;99.90;;;;;;5053290;28;20479;-92
2022/07/08 01:11:08;;;;;;;5.53;3.23;;;15.00;99.90;;;;;;5053086;28;20469;-91
2022/07/08 01:13:35;;;;;;;6.30;3.07;;;14.90;99.90;;;;;;5053640;28;20861;-92
2022/07/08 01:16:02;;;;;;;4.83;2.70;;;14.90;99.90;;;;;;5053817;28;20470;-92
2022/07/08 01:18:30;;;;;;;5.70;3.50;;;14.80;99.90;;;;;;5052093;28;20892;-92
2022/07/08 01:20:59;;;;;;;4.90;3.30;;;14.80;99.90;;;;;;5052546;28;20471;-92
2022/07/08 01:23:26;;;;;;;4.53;3.13;;;14.80;99.90;;;;;;5052720;28;20466;-91
2022/07/08 01:25:53;;;;;;;5.73;3.00;;;14.70;99.90;;;;;;5053088;28;20470;-91
2022/07/08 01:28:21;;;;;;;7.17;3.13;;;14.70;99.90;;;;;;5052285;28;20967;-92
2022/07/08 01:30:47;;;;;;;5.67;3.83;;;14.60;99.90;;;;;;5052544;28;20470;-91
2022/07/08 01:33:14;;;;;;;6.00;3.03;;;14.50;99.90;;;;;;5052567;28;20488;-92
2022/07/08 01:35:41;;;;;;;4.47;2.90;;;14.50;99.90;;;;;;5053619;28;20470;-92
2022/07/08 01:38:09;;;;;;;4.57;2.87;;;14.40;99.90;;;;;;5053357;28;20960;-92
2022/07/08 01:40:36;;;;;;;5.30;2.80;;;14.40;99.90;;;;;;5058718;28;20491;-92
2022/07/08 01:43:03;;;;;;;4.10;2.70;;;14.30;99.90;;;;;;5075536;28;20447;-93
2022/07/08 01:45:30;;;;;;;7.63;3.50;;;14.30;99.90;;;;;;5073611;28;20456;-92
2022/07/08 01:47:56;;;;;;;4.30;2.80;;;14.20;99.90;;;;;;5073550;28;20467;-91
2022/07/08 01:50:23;;;;;;;4.27;2.77;;;14.20;99.90;;;;;;5072992;28;20585;-94
2022/07/08 01:52:50;;;;;;;5.47;3.20;;;14.10;99.90;;;;;;5061434;28;20483;-92
2022/07/08 01:55:18;;;;;;;3.67;2.53;;;14.10;99.90;;;;;;5052395;28;20953;-91
2022/07/08 01:57:45;;;;;;;9.83;3.00;;;14.10;99.90;;;;;;5052960;28;20463;-91
2022/07/08 02:00:12;;;;;;;3.80;2.63;;;14.00;99.90;;;;;;5052737;28;20497;-92
2022/07/08 02:02:39;;;;;;;7.10;2.97;;;14.00;99.90;;;;;;5054047;28;20485;-92
2022/07/08 02:05:08;;;;;;;7.97;3.33;;;13.90;99.90;;;;;;5070159;28;20479;-93
2022/07/08 02:07:35;;;;;;;4.33;3.00;;;13.90;99.90;;;;;;5067942;28;20466;-92
2022/07/08 02:10:02;;;;;;;5.03;3.03;;;13.80;99.90;;;;;;5055759;28;20483;-91
2022/07/08 02:12:29;;;;;;;5.90;2.87;;;13.80;99.90;;;;;;5055876;28;20478;-91
2022/07/08 02:15:01;;;;;;;5.00;2.83;;;13.80;99.90;;;;;;5056208;28;20463;-91
2022/07/08 02:17:29;;;;;;;10.07;3.70;;;13.70;99.90;;;;;;5056101;28;20467;-91
2022/07/08 02:19:56;;;;;;;5.37;3.10;;;13.70;99.90;;;;;;5056039;28;20479;-91
2022/07/08 02:22:22;;;;;;;4.43;3.20;;;13.60;99.90;;;;;;5055812;28;20462;-91
2022/07/08 02:24:49;;;;;;;3.53;2.50;;;13.60;99.90;;;;;;5055965;28;20467;-91
2022/07/08 02:27:17;;;;;;;5.20;2.90;;;13.50;99.90;;;;;;5056116;28;20467;-92
2022/07/08 02:29:45;;;;;;;5.20;2.90;;;13.50;99.90;;;;;;5055298;28;20524;-92
2022/07/08 02:32:12;;;;;;;7.27;3.00;;;13.50;99.90;;;;;;5055625;28;20455;-91
2022/07/08 02:34:39;;;;;;;4.80;3.00;;;13.50;99.90;;;;;;5055592;28;20483;-91
2022/07/08 02:37:06;;;;;;;5.77;2.67;;;13.50;99.90;;;;;;5055805;28;20467;-91
2022/07/08 02:39:32;;;;;;;6.60;2.83;;;13.50;99.90;;;;;;5055489;28;20479;-91
2022/07/08 02:41:59;;;;;;;5.60;2.67;;;13.50;99.90;;;;;;5055895;28;20463;-91
2022/07/08 02:44:26;;;;;;;10.20;2.83;;;13.40;99.90;;;;;;5055736;28;20455;-92
2022/07/08 02:46:54;;;;;;;11.23;2.90;;;13.40;99.90;;;;;;5055771;28;20459;-92
2022/07/08 02:49:21;;;;;;;3.23;2.67;;;13.40;99.90;;;;;;5055282;28;20479;-92
2022/07/08 02:51:47;;;;;;;4.90;3.07;;;13.40;99.90;;;;;;5055844;28;20467;-91
2022/07/08 02:54:14;;;;;;;5.13;2.80;;;13.30;99.90;;;;;;5056392;28;20498;-91
2022/07/08 02:56:41;;;;;;;8.23;3.20;;;13.30;99.90;;;;;;5055566;28;20513;-92
2022/07/08 02:59:08;;;;;;;5.07;2.90;;;13.30;99.90;;;;;;5055078;28;20745;-91
2022/07/08 03:01:34;;;;;;;6.30;3.27;;;13.20;99.90;;;;;;5055252;28;20475;-92
2022/07/08 03:04:02;;;;;;;7.40;2.97;;;13.20;99.90;;;;;;5056332;28;20470;-92
2022/07/08 03:06:29;;;;;;;6.60;3.10;;;13.20;99.90;;;;;;5055724;28;20460;-91
2022/07/08 03:08:56;;;;;;;5.80;2.70;;;13.20;99.90;;;;;;5055245;28;20856;-90
2022/07/08 03:11:23;;;;;;;7.03;3.30;;;13.20;99.90;;;;;;5055456;28;20459;-92
2022/07/08 03:13:49;;;;;;;5.47;2.43;;;13.20;99.90;;;;;;5055394;28;20501;-91
2022/07/08 03:16:16;;;;;;;6.20;2.90;;;13.20;99.90;;;;;;5055445;28;20975;-93
2022/07/08 03:18:43;;;;;;;5.87;2.97;;;13.20;99.90;;;;;;5055318;28;20483;-92
2022/07/08 03:21:11;;;;;;;2.80;2.53;;;13.20;99.90;;;;;;5055492;28;20460;-93
2022/07/08 03:23:38;;;;;;;3.40;2.53;;;13.10;99.90;;;;;;5055155;28;20452;-92
2022/07/08 03:26:05;;;;;;;5.27;3.00;;;13.10;99.90;;;;;;5056363;28;20463;-90
2022/07/08 03:28:31;;;;;;;6.40;2.93;;;13.10;99.90;;;;;;5055384;28;20463;-92
2022/07/08 03:30:58;;;;;;;9.67;3.10;;;13.10;99.90;;;;;;5056054;28;20466;-92
2022/07/08 03:33:25;;;;;;;6.50;3.17;;;13.10;99.90;;;;;;5029002;28;20833;-91
2022/07/08 03:35:52;;;;;;;3.83;2.33;;;13.10;99.90;;;;;;5025616;28;20458;-92
2022/07/08 03:38:20;;;;;;;5.40;2.77;;;13.10;99.90;;;;;;5024623;28;20457;-93
2022/07/08 03:43:31;;;;;;;5.50;3.17;;;13.10;99.90;;;;;;5024504;28;20991;-92
2022/07/08 03:45:58;;;;;;;4.70;2.90;;;13.10;99.90;;;;;;5027024;28;20457;-92
2022/07/08 03:48:24;;;;;;;5.97;2.60;;;13.10;99.90;;;;;;5026207;28;20475;-93
2022/07/08 03:50:51;;;;;;;5.93;2.97;;;13.10;99.90;;;;;;5026244;28;20459;-93
2022/07/08 03:53:20;;;;;;;5.18;3.00;;;13.10;99.90;;;;;;5030546;28;20449;-90
2022/07/08 03:55:47;;;;;;;5.63;2.97;;;13.10;99.90;;;;;;5054480;22;20240;-72
2022/07/08 03:58:14;;;;;;;6.53;3.50;;;13.10;99.90;;;;;;5053834;28;20452;-72
2022/07/08 04:00:41;;;;;;;7.93;2.80;;;13.10;99.90;;;;;;5044173;28;20460;-72
2022/07/08 04:03:08;;;;;;;4.63;2.90;;;13.10;99.90;;;;;;5041260;28;20457;-72
2022/07/08 04:05:35;;;;;;;4.40;2.63;;;13.10;99.90;;;;;;5044900;28;20487;-71
2022/07/08 04:08:01;;;;;;;4.23;2.77;;;13.20;99.90;;;;;;5041469;28;20860;-71
2022/07/08 04:10:29;;;;;;;7.73;2.90;;;13.20;99.90;;;;;;5041396;28;20484;-71
2022/07/08 04:12:56;;;;;;;5.70;2.97;;;13.20;99.90;;;;;;5040731;28;20981;-72
2022/07/08 04:15:23;;;;;;;5.23;2.60;;;13.10;99.90;;;;;;5041958;28;20580;-71
2022/07/08 04:17:50;;;;;;;3.70;2.70;;;13.20;99.90;;;;;;5041582;28;20463;-72
2022/07/08 04:20:17;;;;;;;9.57;2.93;;;13.20;99.90;;;;;;5041902;28;20888;-71
2022/07/08 04:22:44;;;;;;;5.90;2.50;;;13.10;99.90;;;;;;5042235;28;20818;-71
2022/07/08 04:25:10;;;;;;;6.00;3.90;;;13.20;99.90;;;;;;5043771;28;20482;-72
2022/07/08 04:27:38;;;;;;;4.10;2.97;;;13.10;99.90;;;;;;5047214;28;20465;-71
2022/07/08 04:30:06;;;;;;;5.13;3.00;;;13.10;99.90;;;;;;5012911;28;20465;-71
2022/07/08 04:32:33;;;;;;;3.13;2.70;;;13.10;99.90;;;;;;5012917;28;20473;-72
2022/07/08 04:35:00;;;;;;;5.50;2.60;;;13.10;99.90;;;;;;5012322;28;20493;-72
2022/07/08 04:37:27;;;;;;;6.47;2.77;;;13.10;99.90;;;;;;5012731;28;20690;-72
2022/07/08 04:39:53;;;;;;;5.93;3.07;;;13.10;99.90;;;;;;5012355;28;20464;-72
2022/07/08 04:42:20;;;;;;;4.53;2.83;;;13.10;99.90;;;;;;5012909;28;20465;-71
2022/07/08 04:44:48;;;;;;;5.03;2.73;;;13.10;99.90;;;;;;5013575;28;20489;-72
2022/07/08 04:47:15;;;;;;;5.23;2.70;;;13.10;99.90;;;;;;5012940;28;20472;-72
2022/07/08 04:49:42;;;;;;;6.77;3.30;;;13.10;99.90;;;;;;5015540;28;20461;-72
2022/07/08 04:52:09;;;;;;;3.30;2.80;;;13.20;99.90;;;;;;5019379;28;20470;-72
2022/07/08 04:54:37;;;;;;;6.23;3.07;;;13.20;99.90;;;;;;5018228;28;21121;-72
2022/07/08 04:57:04;;;;;;;4.63;3.10;;;13.20;99.90;;;;;;5018276;28;20461;-72
2022/07/08 04:59:31;;;;;;;5.43;2.87;;;13.20;99.90;;;;;;5016429;28;20476;-72
2022/07/08 05:01:59;;;;;;;5.70;2.90;;;13.20;99.90;;;;;;5018312;28;20468;-72
2022/07/08 05:04:25;;;;;;;5.80;3.07;;;13.30;99.90;;;;;;5017227;28;20484;-71
2022/07/08 05:06:52;;;;;;;5.43;3.17;;;13.30;99.90;;;;;;5017269;28;20484;-71
2022/07/08 05:09:19;;;;;;;3.40;2.23;;;13.30;99.90;;;;;;5016689;28;20489;-70
2022/07/08 05:11:45;;;;;;;2.93;2.63;;;13.30;99.90;;;;;;5017088;28;20461;-71
2022/07/08 05:14:13;;;;;;;5.97;2.80;;;13.30;99.90;;;;;;5017163;28;20493;-71
2022/07/08 05:16:40;;;;;;;3.77;2.47;;;13.30;99.90;;;;;;5016888;28;20829;-72
2022/07/08 05:19:09;;;;;;;5.53;2.43;;;13.40;99.90;;;;;;5016063;28;20499;-71
2022/07/08 05:21:37;;;;;;;6.77;2.80;;;13.40;99.90;;;;;;5016400;28;20465;-71
2022/07/08 05:24:04;;;;;;;6.37;2.47;;;13.40;99.90;;;;;;5016287;28;20457;-72
2022/07/08 05:26:31;;;;;;;6.13;3.37;;;13.50;99.90;;;;;;5016383;28;20468;-71
2022/07/08 05:28:58;;;;;;;6.37;3.20;;;13.50;99.90;;;;;;5015885;28;20469;-71
2022/07/08 05:31:24;;;;;;;3.67;2.20;;;13.60;99.90;;;;;;5015471;28;20462;-71
2022/07/08 05:33:51;;;;;;;4.47;2.30;;;13.60;99.90;;;;;;5015976;28;20476;-72
2022/07/08 05:36:19;;;;;;;4.93;2.80;;;13.60;99.90;;;;;;5015523;28;20983;-71
2022/07/08 05:38:46;;;;;;;9.77;3.13;;;13.70;99.90;;;;;;5014039;28;20965;-71
2022/07/08 05:41:12;;;;;;;4.60;3.00;;;13.70;99.90;;;;;;5013915;28;20461;-72
2022/07/08 05:43:39;;;;;;;5.63;2.67;;;13.80;99.90;;;;;;5014405;28;20461;-71
2022/07/08 05:46:06;;;;;;;6.03;2.27;;;13.80;99.90;;;;;;5013974;28;20858;-71
2022/07/08 05:48:33;;;;;;;4.93;2.57;;;13.80;99.90;;;;;;5014035;28;20464;-71
2022/07/08 05:51:00;;;;;;;7.60;3.13;;;13.90;99.90;;;;;;5012885;28;20468;-71
2022/07/08 05:53:28;;;;;;;3.37;2.20;;;13.90;99.90;;;;;;5013335;28;20944;-71
2022/07/08 05:55:55;;;;;;;5.70;2.60;;;13.90;99.90;;;;;;5012590;28;20501;-71
2022/07/08 05:58:21;;;;;;;4.80;2.60;;;13.90;99.90;;;;;;5014730;28;20484;-71
2022/07/08 06:00:48;;;;;;;5.67;2.63;;;14.00;99.90;;;;;;5013426;28;20484;-71
2022/07/08 06:03:15;;;;;;;5.20;2.57;;;14.00;99.90;;;;;;5013632;28;20464;-71
2022/07/08 06:05:41;;;;;;;14.73;3.27;;;14.10;99.90;;;;;;5013866;28;20480;-71
2022/07/08 06:08:08;;;;;;;8.80;2.47;;;14.10;99.90;;;;;;5013367;28;20461;-71
2022/07/08 06:10:36;;;;;;;3.57;2.30;;;14.20;99.90;;;;;;5012561;28;20520;-71
2022/07/08 06:13:03;;;;;;;5.57;2.53;;;14.20;99.90;;;;;;5013013;28;20552;-71
2022/07/08 06:15:30;;;;;;;4.57;2.30;;;14.20;99.90;;;;;;5011427;28;20497;-71
2022/07/08 06:17:56;;;;;;;4.73;2.37;;;14.30;99.90;;;;;;5012201;28;20465;-71
2022/07/08 06:20:23;;;;;;;3.70;2.70;;;14.40;99.90;;;;;;5011741;28;20750;-72
2022/07/08 06:22:50;;;;;;;8.40;2.40;;;14.50;99.90;;;;;;5012215;28;20465;-70
2022/07/08 06:25:17;;;;;;;3.70;2.13;;;14.60;99.90;;;;;;5011576;28;20504;-71
2022/07/08 06:27:45;;;;;;;3.90;2.13;;;14.70;99.90;;;;;;5011834;28;20895;-71
2022/07/08 06:30:12;;;;;;;6.77;2.60;;;14.80;99.90;;;;;;5011160;28;20494;-71
2022/07/08 06:32:39;;;;;;;5.10;2.30;;;14.90;99.90;;;;;;5011841;28;20465;-71
2022/07/08 06:35:07;;;;;;;4.90;2.97;;;15.00;99.90;;;;;;5011069;28;20493;-71
2022/07/08 06:37:33;;;;;;;4.57;2.43;;;15.00;99.90;;;;;;5012822;28;20465;-71
2022/07/08 06:40:00;;;;;;;5.67;1.90;;;15.10;99.90;;;;;;5018090;28;20457;-72
2022/07/08 06:42:27;;;;;;;4.50;2.40;;;15.20;99.90;;;;;;5015868;28;20668;-71
2022/07/08 06:44:55;;;;;;;6.00;2.30;;;15.20;99.90;;;;;;5016112;28;20521;-71
2022/07/08 06:47:22;;;;;;;3.10;2.03;;;15.20;99.90;;;;;;5016355;28;20461;-72
2022/07/08 06:49:49;;;;;;;4.73;2.43;;;15.30;99.90;;;;;;5013890;28;20842;-71
2022/07/08 06:52:17;;;;;;;5.80;2.13;;;15.40;99.90;;;;;;5017120;28;20528;-71
2022/07/08 06:54:44;;;;;;;4.73;1.80;;;15.50;99.90;;;;;;5015930;28;20488;-70
2022/07/08 06:57:10;;;;;;;5.70;2.50;;;15.60;99.90;;;;;;5014370;28;20871;-70
2022/07/08 06:59:38;;;;;;;5.20;2.53;;;15.70;99.90;;;;;;5093393;22;20498;-72
2022/07/08 07:02:06;;;;;;;4.70;1.93;;;15.80;99.90;;;;;;5053157;28;20455;-72
2022/07/08 07:04:33;;;;;;;2.77;2.30;;;15.80;99.90;;;;;;5053590;28;20471;-72
2022/07/08 07:07:00;;;;;;;5.33;2.37;;;15.90;99.90;;;;;;5053548;28;20553;-72
2022/07/08 07:09:26;;;;;;;6.33;2.77;;;16.00;99.90;;;;;;5053075;28;20459;-73
2022/07/08 07:11:53;;;;;;;3.40;2.10;;;16.00;99.90;;;;;;5053224;28;20466;-73
2022/07/08 07:14:20;;;;;;;4.07;2.47;;;16.00;99.90;;;;;;5053395;28;20483;-72
2022/07/08 07:16:47;;;;;;;6.07;2.30;;;16.00;99.90;;;;;;5053309;28;20462;-72
2022/07/08 07:19:15;;;;;;;5.23;2.00;;;16.00;99.90;;;;;;5051583;28;20463;-72
2022/07/08 07:21:41;;;;;;;5.67;2.30;;;16.00;99.90;;;;;;5042543;28;20460;-72
2022/07/08 07:24:08;;;;;;;7.37;2.40;;;16.00;99.90;;;;;;5031145;28;20453;-72
2022/07/08 07:26:36;;;;;;;5.50;2.03;;;15.90;99.90;;;;;;5032536;28;20467;-72
2022/07/08 07:29:03;;;;;;;5.80;2.03;;;16.00;99.90;;;;;;5031410;28;20956;-72
2022/07/08 07:31:30;;;;;;;4.50;2.43;;;16.20;99.90;;;;;;5032189;28;20455;-72
2022/07/08 07:33:57;;;;;;;3.07;1.70;;;16.40;99.90;;;;;;5031867;28;20922;-72
2022/07/08 07:36:26;;;;;;;3.80;2.27;;;16.50;99.90;;;;;;5031826;28;20486;-73
2022/07/08 07:38:52;;;;;;;3.20;1.93;;;16.60;99.90;;;;;;5032209;28;20500;-72
2022/07/08 07:41:19;;;;;;;7.43;1.73;;;16.60;99.90;;;;;;5030682;28;20826;-73
2022/07/08 07:43:46;;;;;;;4.40;2.00;;;16.70;99.90;;;;;;5031831;28;20460;-73
2022/07/08 07:46:13;;;;;;;4.47;1.90;;;16.80;99.90;;;;;;5031609;28;20480;-72
2022/07/08 07:48:40;;;;;;;5.57;2.37;;;16.70;99.90;;;;;;5032040;28;20456;-72
2022/07/08 07:51:07;;;;;;;5.30;2.17;;;16.70;99.90;;;;;;5030142;28;20555;-72
2022/07/08 07:53:35;;;;;;;2.67;1.80;;;16.70;99.90;;;;;;5028065;28;20499;-71
2022/07/08 07:56:02;;;;;;;2.60;1.60;;;16.70;99.90;;;;;;5028550;28;20496;-71
2022/07/08 07:58:29;;;;;;;4.17;2.13;;;16.70;99.90;;;;;;5031122;28;20496;-72
2022/07/08 08:00:56;;;;;;;3.80;2.40;;;16.80;99.90;;;;;;5029919;28;20826;-72
2022/07/08 08:03:23;;;;;;;3.50;1.80;;;17.00;99.90;;;;;;5030939;28;20840;-72
2022/07/08 08:05:49;;;;;;;2.47;1.90;;;17.20;99.90;;;;;;5030704;28;20480;-72
2022/07/08 08:08:16;;;;;;;2.90;1.90;;;17.40;99.90;;;;;;5030876;28;20460;-71
2022/07/08 08:10:44;;;;;;;3.97;1.83;;;17.70;99.90;;;;;;5031172;28;20479;-72
2022/07/08 08:13:11;;;;;;;5.37;2.07;;;17.80;99.90;;;;;;5031385;28;20558;-71
2022/07/08 08:15:38;;;;;;;4.60;2.00;;;17.80;99.90;;;;;;5031437;28;20491;-71
2022/07/08 08:18:05;;;;;;;7.37;1.93;;;17.80;99.90;;;;;;5030560;28;20460;-71
2022/07/08 08:20:32;;;;;;;5.13;2.07;;;17.90;99.90;;;;;;5030868;28;20506;-71
2022/07/08 08:22:59;;;;;;;2.50;1.60;;;17.80;99.90;;;;;;5031066;28;20460;-71
2022/07/08 08:25:27;;;;;;;3.40;2.00;;;17.80;99.90;;;;;;5031028;28;20476;-71
2022/07/08 08:27:56;;;;;;;2.93;1.63;;;17.90;99.90;;;;;;5031188;28;20471;-71
2022/07/08 08:30:23;;;;;;;4.33;1.97;;;18.00;99.90;;;;;;5029892;28;20535;-73
2022/07/08 08:32:50;;;;;;;5.83;2.17;;;18.10;99.90;;;;;;5031290;28;20882;-71
2022/07/08 08:35:17;;;;;;;3.60;1.90;;;18.20;99.90;;;;;;5031151;28;20584;-72
2022/07/08 08:37:43;;;;;;;4.50;1.70;;;18.30;99.90;;;;;;5030571;28;21074;-71
2022/07/08 08:40:12;;;;;;;3.30;1.70;;;18.40;99.90;;;;;;5030041;28;20479;-72
2022/07/08 08:42:40;;;;;;;2.90;1.63;;;18.50;99.90;;;;;;5030250;28;20460;-72
2022/07/08 08:45:09;;;;;;;3.20;2.00;;;18.50;99.60;;;;;;5030332;28;20484;-72
2022/07/08 08:47:37;;;;;;;6.50;1.90;;;18.70;99.70;;;;;;5030883;28;20467;-72
2022/07/08 08:52:52;;;;;;;3.57;1.97;;;18.60;98.80;;;;;;5030459;28;20826;-73
2022/07/08 08:55:26;;;;;;;3.47;2.00;;;18.40;99.00;;;;;;5029963;28;20491;-72
2022/07/08 08:57:54;;;;;;;2.73;1.87;;;18.20;99.20;;;;;;5030330;28;20496;-73
2022/07/08 09:00:23;;;;;;;5.23;2.03;;;18.10;99.50;;;;;;5029585;28;20475;-72
2022/07/08 09:02:49;;;;;;;1.53;1.30;;;18.10;99.60;;;;;;5030669;28;20460;-72
2022/07/08 09:05:16;;;;;;;2.27;1.80;;;18.20;99.20;;;;;;5036935;28;21008;-72
2022/07/08 09:07:44;;;;;;;8.13;1.90;;;18.30;97.70;;;;;;5032301;28;20463;-72
2022/07/08 09:10:12;;;;;;;4.30;1.97;;;18.20;98.20;;;;;;5029752;28;20468;-72
2022/07/08 09:12:38;;;;;;;6.90;2.10;;;18.30;98.00;;;;;;5030677;28;20452;-72
2022/07/08 09:15:06;;;;;;;4.03;2.20;;;18.20;98.00;;;;;;5030253;28;20488;-73
2022/07/08 09:17:42;;;;;;;4.97;1.90;;;18.10;99.60;;;;;;5030903;28;20467;-73
2022/07/08 09:20:10;;;;;;;4.43;2.17;;;18.10;98.50;;;;;;5029888;28;20460;-73
2022/07/08 09:22:36;;;;;;;6.03;1.93;;;18.20;99.20;;;;;;5030966;28;20460;-73
2022/07/08 09:25:03;;;;;;;3.57;1.70;;;18.30;99.40;;;;;;5030465;28;20476;-72
2022/07/08 09:27:30;;;;;;;3.90;2.00;;;18.40;99.30;;;;;;5030697;28;20848;-73
2022/07/08 09:29:58;;;;;;;3.97;1.90;;;18.60;99.50;;;;;;5030013;28;20978;-73
2022/07/08 09:32:25;;;;;;;3.13;1.63;;;18.90;99.00;;;;;;5030436;28;20837;-73
2022/07/08 09:34:53;;;;;;;1.80;1.60;;;19.00;99.60;;;;;;5030484;28;20511;-73
2022/07/08 09:37:21;;;;;;;3.27;1.70;;;19.30;99.50;;;;;;5030262;28;20464;-72
2022/07/08 09:39:48;;;;;;;4.60;1.97;;;19.50;98.70;;;;;;5030244;28;20994;-73
2022/07/08 09:42:16;;;;;;;4.80;2.03;;;19.70;98.30;;;;;;5030126;28;20464;-72
2022/07/08 09:44:50;;;;;;;2.57;2.10;;;19.80;98.30;;;;;;5030691;28;20819;-72
2022/07/08 09:47:17;;;;;;;5.00;1.90;;;19.90;98.20;;;;;;5030052;28;20463;-72
2022/07/08 09:49:45;;;;;;;6.20;3.00;;;19.90;98.30;;;;;;5029873;28;20467;-72
2022/07/08 09:52:20;;;;;;;7.20;1.87;;;20.00;97.90;;;;;;5030168;28;20464;-72
2022/07/08 09:54:59;;;;;;;2.70;1.50;;;20.10;97.40;;;;;;5030371;28;20488;-72
2022/07/08 09:57:26;;;;;;;3.10;1.80;;;20.30;98.50;;;;;;5030543;28;20471;-72
2022/07/08 09:59:54;;;;;;;3.03;1.70;;;20.50;97.50;;;;;;5029423;28;20475;-72
2022/07/08 10:02:21;;;;;;;2.60;1.90;;;20.50;98.20;;;;;;5030347;28;20464;-72
2022/07/08 10:04:50;;;;;;;8.10;1.87;;;20.60;96.90;;;;;;5030047;28;20480;-72
2022/07/08 10:07:18;;;;;;;3.03;1.70;;;20.60;97.30;;;;;;5030301;28;21014;-72
2022/07/08 10:09:45;;;;;;;4.43;2.00;;;20.60;96.50;;;;;;5029504;28;21045;-72
2022/07/08 10:12:13;;;;;;;10.97;1.80;;;20.40;96.50;;;;;;5029958;28;20464;-72
2022/07/08 10:14:42;;;;;;;3.00;1.53;;;20.50;97.20;;;;;;5030185;28;20475;-72
2022/07/08 10:17:15;;;;;;;2.30;1.60;;;20.40;97.00;;;;;;5030072;28;20879;-72
2022/07/08 10:19:42;;;;;;;3.17;1.47;;;20.50;97.60;;;;;;5029661;28;20471;-72
2022/07/08 10:22:10;;;;;;;2.67;1.87;;;20.60;95.50;;;;;;5029925;28;20464;-72
2022/07/08 10:24:41;;;;;;;3.90;1.60;;;20.70;97.00;;;;;;5032012;28;20484;-73
2022/07/08 10:27:10;;;;;;;6.10;1.83;;;20.80;95.20;;;;;;5033490;28;20448;-73
2022/07/08 10:29:39;;;;;;;2.77;1.90;;;20.80;95.80;;;;;;5033936;28;20471;-73
2022/07/08 10:32:22;;;;;;;6.63;2.30;;;20.80;96.70;;;;;;5048742;28;20463;-72
2022/07/08 10:35:07;;;;;;;4.33;1.73;;;20.90;96.90;;;;;;5052991;28;20475;-73
2022/07/08 10:37:49;;;;;;;5.70;1.80;;;21.00;97.70;;;;;;5053258;28;20451;-73
2022/07/08 10:40:49;;;;;;;2.90;1.83;;;21.10;97.50;;;;;;5053310;28;20459;-73
2022/07/08 10:43:26;;;;;;;3.47;1.73;;;21.30;96.10;;;;;;5053708;28;20458;-73
2022/07/08 10:46:04;;;;;;;3.20;2.10;;;21.30;96.40;;;;;;5053861;28;20482;-73
2022/07/08 10:48:47;;;;;;;6.90;2.13;;;21.40;96.70;;;;;;5053654;28;20462;-73
2022/07/08 10:51:47;;;;;;;2.10;1.60;;;21.40;96.80;;;;;;5053136;28;20969;-73
2022/07/08 10:54:38;;;;;;;2.67;2.03;;;21.40;96.50;;;;;;5053524;28;20483;-73
2022/07/08 10:57:14;;;;;;;3.10;1.40;;;21.60;96.40;;;;;;5053585;28;20482;-73
2022/07/08 10:59:46;;;;;;;2.47;2.00;;;21.80;97.20;;;;;;5052843;28;20866;-73
2022/07/08 11:02:15;;;;;;;5.97;1.63;;;21.90;96.10;;;;;;5128390;22;20495;-72
2022/07/08 11:04:53;;;;;;;2.93;1.83;;;22.10;96.20;;;;;;5053057;28;20509;-73
2022/07/08 11:07:26;;;;;;;2.90;1.67;;;22.20;94.80;;;;;;5053345;28;20457;-73
2022/07/08 11:09:54;;;;;;;2.33;1.63;;;22.20;95.60;;;;;;5052813;28;20463;-73
2022/07/08 11:12:24;;;;;;;2.30;1.33;;;22.30;96.50;;;;;;5053355;28;21020;-73
2022/07/08 11:14:54;;;;;;;2.13;1.93;;;22.40;96.10;;;;;;5051440;28;20715;-73
2022/07/08 11:17:21;;;;;;;3.87;1.90;;;22.30;94.50;;;;;;5053198;28;20842;-72
2022/07/08 11:19:50;;;;;;;4.40;1.60;;;22.30;95.00;;;;;;5052304;28;20825;-73
2022/07/08 11:22:16;;;;;;;2.90;1.80;;;22.30;95.20;;;;;;5053032;28;20831;-73
2022/07/08 11:24:45;;;;;;;3.57;1.80;;;22.20;94.90;;;;;;5053213;28;20482;-73
2022/07/08 11:27:12;;;;;;;2.65;1.65;;;22.20;95.10;;;;;;5052329;28;20455;-78
2022/07/08 11:29:47;;;;;;;3.73;1.90;;;22.40;96.60;;;;;;5037637;28;20225;-74
2022/07/08 11:32:17;;;;;;;4.73;1.90;;;22.60;96.40;;;;;;5032585;28;20564;-74
2022/07/08 11:34:45;;;;;;;3.47;1.60;;;22.70;95.10;;;;;;5032860;28;20491;-74
2022/07/08 11:37:11;;;;;;;2.37;1.87;;;22.70;95.80;;;;;;5031288;28;20491;-74
2022/07/08 11:39:38;;;;;;;3.10;1.90;;;22.80;95.10;;;;;;5032399;28;20463;-74
2022/07/08 11:42:05;;;;;;;3.37;2.07;;;22.90;94.90;;;;;;5032609;28;20483;-75
2022/07/08 11:44:32;;;;;;;3.57;1.73;;;23.00;95.40;;;;;;5032574;28;20489;-74
2022/07/08 11:46:59;;;;;;;2.80;1.50;;;23.00;94.50;;;;;;5032766;28;20819;-72
2022/07/08 11:49:27;;;;;;;2.47;1.93;;;23.00;94.80;;;;;;5031871;28;20465;-72
2022/07/08 11:51:55;;;;;;;3.20;1.63;;;23.00;95.80;;;;;;5032756;28;20467;-74
2022/07/08 11:54:23;;;;;;;3.40;1.57;;;23.20;95.90;;;;;;5032730;28;20495;-74
2022/07/08 11:56:54;;;;;;;4.60;1.70;;;23.30;95.20;;;;;;5032773;28;20481;-73
2022/07/08 11:59:22;;;;;;;4.13;1.73;;;23.30;95.70;;;;;;5032232;28;20495;-73
2022/07/08 12:01:49;;;;;;;2.90;1.60;;;23.40;95.40;;;;;;5032742;28;20542;-74
2022/07/08 12:04:16;;;;;;;2.60;1.47;;;23.30;94.30;;;;;;5032342;28;20565;-75
2022/07/08 12:06:48;;;;;;;3.43;1.50;;;23.40;94.90;;;;;;5024923;28;20462;-74
2022/07/08 12:09:15;;;;;;;2.90;1.73;;;23.40;94.30;;;;;;5012158;28;20469;-73
2022/07/08 12:11:43;;;;;;;2.50;1.70;;;23.40;93.70;;;;;;5012701;28;20473;-74
2022/07/08 12:14:11;;;;;;;2.63;1.50;;;23.50;95.30;;;;;;5012587;28;20493;-74
2022/07/08 12:16:43;;;;;;;6.23;3.17;;;23.50;94.20;;;;;;5012675;28;20492;-74
2022/07/08 12:19:25;;;;;;;4.80;1.73;;;23.60;93.60;;;;;;5011573;28;20526;-75
2022/07/08 12:21:54;;;;;;;2.70;1.50;;;23.80;94.00;;;;;;5012561;28;20453;-74
2022/07/08 12:24:25;;;;;;;2.67;2.13;;;23.70;94.50;;;;;;5012056;28;20844;-74
2022/07/08 12:26:54;;;;;;;3.83;1.60;;;23.90;95.40;;;;;;5012424;28;20489;-72
2022/07/08 12:29:20;;;;;;;3.17;1.47;;;24.00;95.00;;;;;;5009805;28;20465;-73
2022/07/08 12:31:48;;;;;;;3.37;1.60;;;24.00;94.00;;;;;;5011913;28;20461;-74
2022/07/08 12:34:17;;;;;;;4.90;1.80;;;24.10;94.50;;;;;;5026807;28;20482;-73
2022/07/08 12:36:44;;;;;;;3.23;1.50;;;24.20;91.90;;;;;;5030993;28;20484;-73
2022/07/08 12:39:17;;;;;;;3.10;1.80;;;24.10;92.80;;;;;;5030210;28;20464;-71
2022/07/08 12:41:46;;;;;;;3.93;1.60;;;24.00;92.50;;;;;;5031223;28;20495;-74
2022/07/08 12:44:33;;;;;;;3.83;1.80;;;24.10;93.90;;;;;;5030833;28;20574;-72
2022/07/08 12:47:00;;;;;;;3.00;1.20;;;24.20;94.60;;;;;;5030997;28;20461;-73
2022/07/08 12:49:28;;;;;;;2.30;1.50;;;24.20;94.00;;;;;;5030500;28;20491;-77
2022/07/08 12:51:55;;;;;;;4.00;1.73;;;24.20;93.60;;;;;;5033191;28;20466;-76
2022/07/08 12:54:23;;;;;;;3.30;1.90;;;24.40;93.50;;;;;;5030700;28;20495;-75
2022/07/08 12:56:51;;;;;;;3.43;1.60;;;24.50;91.70;;;;;;5030829;28;20587;-75